createdAt,value
2018-10-05T00:00:50.852Z,34.70
2018-10-05T00:01:50.960Z,26.40
2018-10-05T00:02:51.066Z,28.30
2018-10-05T00:03:51.138Z,28.40
2018-10-05T00:04:51.269Z,27.60
2018-10-05T00:05:51.351Z,32.00
2018-10-05T00:06:51.459Z,28.80
2018-10-05T00:07:51.528Z,19.70
2018-10-05T00:08:51.797Z,23.90
2018-10-05T00:09:51.881Z,29.50
2018-10-05T00:10:52.008Z,29.00
2018-10-05T00:11:51.997Z,27.60
2018-10-05T00:12:52.744Z,25.00
2018-10-05T00:13:52.616Z,26.50
2018-10-05T00:14:52.706Z,28.40
2018-10-05T00:15:52.835Z,29.50
2018-10-05T00:16:52.912Z,30.70
2018-10-05T00:17:52.991Z,31.30
2018-10-05T00:19:53.091Z,36.60
2018-10-05T00:20:53.137Z,34.00
2018-10-05T00:21:53.197Z,37.40
2018-10-05T00:22:53.254Z,29.70
2018-10-05T00:23:53.305Z,38.20
2018-10-05T00:24:53.371Z,34.60
2018-10-05T00:25:53.634Z,41.40
2018-10-05T00:26:53.682Z,36.20
2018-10-05T00:27:53.773Z,47.00
2018-10-05T00:28:53.883Z,46.20
2018-10-05T00:29:53.946Z,47.80
2018-10-05T00:30:54.039Z,45.20
2018-10-05T00:31:54.124Z,50.30
2018-10-05T00:32:54.145Z,46.60
2018-10-05T00:33:54.424Z,50.60
2018-10-05T00:34:54.690Z,53.50
2018-10-05T00:35:54.957Z,50.60
2018-10-05T00:36:55.213Z,50.10
2018-10-05T00:37:55.521Z,47.10
2018-10-05T00:38:55.733Z,53.30
2018-10-05T00:39:56.033Z,51.50
2018-10-05T00:40:56.293Z,45.30
2018-10-05T00:41:56.795Z,55.00
2018-10-05T00:42:57.051Z,50.30
2018-10-05T00:43:57.331Z,48.10
2018-10-05T00:44:57.804Z,49.60
2018-10-05T00:45:58.041Z,49.70
2018-10-05T00:46:58.443Z,49.80
2018-10-05T00:47:58.717Z,48.00
2018-10-05T00:48:58.983Z,53.00
2018-10-05T00:49:59.532Z,47.20
2018-10-05T00:50:59.358Z,56.10
2018-10-05T00:51:59.817Z,44.40
2018-10-05T00:53:00.157Z,45.20
2018-10-05T00:54:00.489Z,41.80
2018-10-05T00:55:00.989Z,42.00
2018-10-05T00:56:01.272Z,34.40
2018-10-05T00:57:01.745Z,41.50
2018-10-05T00:58:01.730Z,41.90
2018-10-05T00:59:02.159Z,42.50
2018-10-05T01:00:02.443Z,42.60
2018-10-05T01:01:03.078Z,46.90
2018-10-05T01:02:03.198Z,44.30
2018-10-05T01:03:03.608Z,32.50
2018-10-05T01:04:04.017Z,31.20
2018-10-05T01:05:04.142Z,29.60
2018-10-05T01:06:04.248Z,26.40
2018-10-05T01:07:04.384Z,31.20
2018-10-05T01:08:04.511Z,29.10
2018-10-05T01:09:04.675Z,35.40
2018-10-05T01:10:04.830Z,40.40
2018-10-05T01:11:04.999Z,40.10
2018-10-05T01:12:05.103Z,45.30
2018-10-05T01:13:05.315Z,40.20
2018-10-05T01:14:05.446Z,47.60
2018-10-05T01:15:05.644Z,49.60
2018-10-05T01:16:05.855Z,56.80
2018-10-05T01:17:06.037Z,54.20
2018-10-05T01:18:06.114Z,57.00
2018-10-05T01:19:06.197Z,54.60
2018-10-05T01:20:06.264Z,55.00
2018-10-05T01:21:06.317Z,58.50
2018-10-05T01:22:06.415Z,50.70
2018-10-05T01:23:06.601Z,43.40
2018-10-05T01:24:06.746Z,39.90
2018-10-05T01:25:06.899Z,34.10
2018-10-05T01:26:06.909Z,25.20
2018-10-05T01:27:07.004Z,20.40
2018-10-05T01:28:07.134Z,23.00
2018-10-05T01:29:07.240Z,27.00
2018-10-05T01:31:07.355Z,23.40
2018-10-05T01:32:07.421Z,22.60
2018-10-05T01:33:07.520Z,19.10
2018-10-05T01:34:07.566Z,20.70
2018-10-05T01:35:07.631Z,23.20
2018-10-05T01:36:07.736Z,24.50
2018-10-05T01:37:07.782Z,22.30
2018-10-05T01:38:08.343Z,25.10
2018-10-05T01:39:08.442Z,23.00
2018-10-05T01:40:08.211Z,23.20
2018-10-05T01:41:08.680Z,28.80
2018-10-05T01:42:08.742Z,37.60
2018-10-05T01:43:08.800Z,44.60
2018-10-05T01:44:08.878Z,44.40
2018-10-05T01:45:08.891Z,46.10
2018-10-05T01:46:08.982Z,37.40
2018-10-05T01:47:09.016Z,37.20
2018-10-05T01:48:08.827Z,40.10
2018-10-05T01:49:09.395Z,33.80
2018-10-05T01:50:09.263Z,44.60
2018-10-05T01:51:09.810Z,42.50
2018-10-05T01:52:09.635Z,47.30
2018-10-05T01:53:10.040Z,49.00
2018-10-05T01:54:10.562Z,51.90
2018-10-05T01:55:10.300Z,44.00
2018-10-05T01:56:10.679Z,40.10
2018-10-05T01:57:10.955Z,37.40
2018-10-05T01:58:11.360Z,40.70
2018-10-05T01:59:11.662Z,45.10
2018-10-05T02:00:12.179Z,46.50
2018-10-05T02:01:12.092Z,50.10
2018-10-05T02:02:12.427Z,47.50
2018-10-05T02:03:12.687Z,45.60
2018-10-05T02:04:13.151Z,48.10
2018-10-05T02:05:13.488Z,49.90
2018-10-05T02:06:13.770Z,53.30
2018-10-05T02:07:14.019Z,47.80
2018-10-05T02:08:14.272Z,55.80
2018-10-05T02:09:14.556Z,57.10
2018-10-05T02:10:15.100Z,50.40
2018-10-05T02:11:14.893Z,56.20
2018-10-05T02:12:15.157Z,54.00
2018-10-05T02:13:15.505Z,54.00
2018-10-05T02:14:15.781Z,48.80
2018-10-05T02:15:16.368Z,47.70
2018-10-05T02:16:16.135Z,47.90
2018-10-05T02:17:16.451Z,54.00
2018-10-05T02:18:16.720Z,51.60
2018-10-05T02:19:16.981Z,55.40
2018-10-05T02:20:17.314Z,57.50
2018-10-05T02:21:17.610Z,49.70
2018-10-05T02:22:17.917Z,57.30
2018-10-05T02:23:18.532Z,48.60
2018-10-05T02:24:18.585Z,50.60
2018-10-05T02:25:18.746Z,48.20
2018-10-05T02:26:18.875Z,48.10
2018-10-05T02:27:19.033Z,49.00
2018-10-05T02:28:19.176Z,50.70
2018-10-05T02:29:19.333Z,53.20
2018-10-05T02:30:19.469Z,51.50
2018-10-05T02:31:19.672Z,58.70
2018-10-05T02:32:19.804Z,55.40
2018-10-05T02:33:19.592Z,49.30
2018-10-05T02:34:20.209Z,38.40
2018-10-05T02:35:20.316Z,38.50
2018-10-05T02:36:20.549Z,35.00
2018-10-05T02:37:20.580Z,37.50
2018-10-05T02:38:20.730Z,32.10
2018-10-05T02:39:20.875Z,35.60
2018-10-05T02:40:20.958Z,32.10
2018-10-05T02:41:21.069Z,39.90
2018-10-05T02:42:21.067Z,31.60
2018-10-05T02:43:21.641Z,34.60
2018-10-05T02:44:21.890Z,39.40
2018-10-05T02:45:22.010Z,35.10
2018-10-05T02:46:22.106Z,40.40
2018-10-05T02:47:22.222Z,42.20
2018-10-05T02:48:22.320Z,35.10
2018-10-05T02:50:22.437Z,40.20
2018-10-05T02:51:22.541Z,41.80
2018-10-05T02:52:22.667Z,40.90
2018-10-05T02:53:22.867Z,41.50
2018-10-05T02:54:22.980Z,41.60
2018-10-05T02:55:23.093Z,46.00
2018-10-05T02:56:23.197Z,41.20
2018-10-05T02:57:23.413Z,39.60
2018-10-05T02:58:23.509Z,41.70
2018-10-05T02:59:23.568Z,41.20
2018-10-05T03:00:23.623Z,44.20
2018-10-05T03:01:23.989Z,46.40
2018-10-05T03:02:24.233Z,51.80
2018-10-05T03:03:24.412Z,56.20
2018-10-05T03:04:24.662Z,49.40
2018-10-05T03:05:24.906Z,48.10
2018-10-05T03:06:25.162Z,53.90
2018-10-05T03:07:25.443Z,50.80
2018-10-05T03:08:25.952Z,42.80
2018-10-05T03:09:26.271Z,37.00
2018-10-05T03:10:26.547Z,36.00
2018-10-05T03:11:26.828Z,38.40
2018-10-05T03:12:27.104Z,39.70
2018-10-05T03:13:27.267Z,47.50
2018-10-05T03:14:27.511Z,47.50
2018-10-05T03:15:27.781Z,50.90
2018-10-05T03:16:28.138Z,54.80
2018-10-05T03:17:28.487Z,50.70
2018-10-05T03:18:28.780Z,57.90
2018-10-05T03:19:29.180Z,61.30
2018-10-05T03:20:29.438Z,62.50
2018-10-05T03:21:29.729Z,61.70
2018-10-05T03:22:30.019Z,61.70
2018-10-05T03:23:30.471Z,58.30
2018-10-05T03:24:30.728Z,57.10
2018-10-05T03:25:30.986Z,45.70
2018-10-05T03:26:31.260Z,52.70
2018-10-05T03:27:31.519Z,48.70
2018-10-05T03:28:31.778Z,44.20
2018-10-05T03:29:32.067Z,36.90
2018-10-05T03:30:32.378Z,40.20
2018-10-05T03:31:32.621Z,39.30
2018-10-05T03:32:32.948Z,36.30
2018-10-05T03:33:33.572Z,38.40
2018-10-05T03:34:33.680Z,45.10
2018-10-05T03:35:33.819Z,42.60
2018-10-05T03:36:33.917Z,45.10
2018-10-05T03:37:34.055Z,45.00
2018-10-05T03:38:34.223Z,38.80
2018-10-05T03:39:34.346Z,44.50
2018-10-05T03:40:34.515Z,38.10
2018-10-05T03:41:34.649Z,42.00
2018-10-05T03:42:35.189Z,41.70
2018-10-05T03:43:35.332Z,40.90
2018-10-05T03:44:35.456Z,40.00
2018-10-05T03:45:35.615Z,46.30
2018-10-05T03:46:35.774Z,49.20
2018-10-05T03:47:35.871Z,50.80
2018-10-05T03:48:35.956Z,52.70
2018-10-05T03:49:36.010Z,54.30
2018-10-05T03:50:36.117Z,49.80
2018-10-05T03:51:36.211Z,50.40
2018-10-05T03:52:36.296Z,43.00
2018-10-05T03:53:36.371Z,41.20
2018-10-05T03:54:36.486Z,39.80
2018-10-05T03:55:36.561Z,42.00
2018-10-05T03:56:36.689Z,53.50
2018-10-05T03:57:36.769Z,54.80
2018-10-05T03:58:36.898Z,45.40
2018-10-05T03:59:36.923Z,43.90
2018-10-05T04:00:37.027Z,47.60
2018-10-05T04:01:37.137Z,40.80
2018-10-05T04:02:37.242Z,40.40
2018-10-05T04:03:37.340Z,43.20
2018-10-05T04:04:37.210Z,45.50
2018-10-05T04:05:37.780Z,48.60
2018-10-05T04:06:37.848Z,54.90
2018-10-05T04:07:37.918Z,51.60
2018-10-05T04:08:37.992Z,57.60
2018-10-05T04:09:38.039Z,52.90
2018-10-05T04:10:38.102Z,52.90
2018-10-05T04:11:38.180Z,54.10
2018-10-05T04:12:38.260Z,51.30
2018-10-05T04:13:38.328Z,50.50
2018-10-05T04:14:38.424Z,49.00
2018-10-05T04:15:38.575Z,47.60
2018-10-05T04:16:38.655Z,52.30
2018-10-05T04:17:38.765Z,44.20
2018-10-05T04:18:38.839Z,50.60
2018-10-05T04:19:38.937Z,41.10
2018-10-05T04:20:39.007Z,41.30
2018-10-05T04:21:39.011Z,35.60
2018-10-05T04:22:38.980Z,30.60
2018-10-05T04:23:39.240Z,35.50
2018-10-05T04:24:39.611Z,31.50
2018-10-05T04:25:40.472Z,33.90
2018-10-05T04:26:40.374Z,38.80
2018-10-05T04:27:40.948Z,42.30
2018-10-05T04:28:40.768Z,39.20
2018-10-05T04:29:41.316Z,41.60
2018-10-05T04:30:41.102Z,38.90
2018-10-05T04:31:41.520Z,41.40
2018-10-05T04:32:41.799Z,55.10
2018-10-05T04:33:42.229Z,42.50
2018-10-05T04:34:42.662Z,40.50
2018-10-05T04:35:43.070Z,35.80
2018-10-05T04:36:43.281Z,37.00
2018-10-05T04:37:43.685Z,38.90
2018-10-05T04:38:43.989Z,40.00
2018-10-05T04:39:44.509Z,35.00
2018-10-05T04:40:44.281Z,35.90
2018-10-05T04:41:44.709Z,42.90
2018-10-05T04:42:45.128Z,39.80
2018-10-05T04:43:45.501Z,27.00
2018-10-05T04:44:45.965Z,35.80
2018-10-05T04:45:45.964Z,38.10
2018-10-05T04:46:46.248Z,71.20
2018-10-05T04:47:46.741Z,43.40
2018-10-05T04:48:47.006Z,41.20
2018-10-05T04:49:47.294Z,48.10
2018-10-05T04:50:47.566Z,54.00
2018-10-05T04:51:47.849Z,59.80
2018-10-05T04:52:48.428Z,58.00
2018-10-05T04:53:48.700Z,57.70
2018-10-05T04:54:48.968Z,56.40
2018-10-05T04:55:49.123Z,52.30
2018-10-05T04:56:49.403Z,52.80
2018-10-05T04:57:49.449Z,56.70
2018-10-05T04:58:49.606Z,55.50
2018-10-05T04:59:49.772Z,56.00
2018-10-05T05:00:49.926Z,54.30
2018-10-05T05:01:50.074Z,64.90
2018-10-05T05:02:50.265Z,70.40
2018-10-05T05:03:50.469Z,70.40
2018-10-05T05:04:50.617Z,74.20
2018-10-05T05:05:50.769Z,64.60
2018-10-05T05:06:50.945Z,69.90
2018-10-05T05:07:51.085Z,66.90
2018-10-05T05:08:51.178Z,71.70
2018-10-05T05:09:51.238Z,66.40
2018-10-05T05:10:51.277Z,65.70
2018-10-05T05:11:51.429Z,66.10
2018-10-05T05:12:51.570Z,65.30
2018-10-05T05:13:51.657Z,61.90
2018-10-05T05:14:51.716Z,63.90
2018-10-05T05:15:51.831Z,62.80
2018-10-05T05:16:51.970Z,57.60
2018-10-05T05:17:52.080Z,60.60
2018-10-05T05:18:52.199Z,54.20
2018-10-05T05:19:52.298Z,58.60
2018-10-05T05:20:52.401Z,58.10
2018-10-05T05:21:52.474Z,64.30
2018-10-05T05:22:52.547Z,64.10
2018-10-05T05:23:52.628Z,63.70
2018-10-05T05:24:52.463Z,65.10
2018-10-05T05:25:53.006Z,65.40
2018-10-05T05:26:53.069Z,71.00
2018-10-05T05:27:53.121Z,58.00
2018-10-05T05:28:53.186Z,62.20
2018-10-05T05:29:53.306Z,68.20
2018-10-05T05:30:53.459Z,65.70
2018-10-05T05:31:53.535Z,62.90
2018-10-05T05:32:53.623Z,62.80
2018-10-05T05:34:53.773Z,61.70
2018-10-05T05:35:53.827Z,53.30
2018-10-05T05:36:53.855Z,58.30
2018-10-05T05:37:53.912Z,55.20
2018-10-05T05:38:53.966Z,53.00
2018-10-05T05:39:54.033Z,51.70
2018-10-05T05:40:54.102Z,52.10
2018-10-05T05:41:54.200Z,48.90
2018-10-05T05:42:54.292Z,51.20
2018-10-05T05:43:54.262Z,46.90
2018-10-05T05:44:54.549Z,47.50
2018-10-05T05:45:54.928Z,41.60
2018-10-05T05:46:55.333Z,41.50
2018-10-05T05:47:55.528Z,38.50
2018-10-05T05:48:55.955Z,34.90
2018-10-05T05:49:56.681Z,34.40
2018-10-05T05:50:55.979Z,30.30
2018-10-05T05:51:56.267Z,37.20
2018-10-05T05:52:56.601Z,33.00
2018-10-05T05:53:56.911Z,28.80
2018-10-05T05:54:57.156Z,33.00
2018-10-05T05:55:57.442Z,30.90
2018-10-05T05:56:57.870Z,32.80
2018-10-05T05:57:58.168Z,30.30
2018-10-05T05:58:58.537Z,32.30
2018-10-05T05:59:58.834Z,27.80
2018-10-05T06:00:59.149Z,27.90
2018-10-05T06:01:59.291Z,26.60
2018-10-05T06:02:59.552Z,32.20
2018-10-05T06:03:59.822Z,21.50
2018-10-05T06:05:00.088Z,23.00
2018-10-05T06:06:00.350Z,26.40
2018-10-05T06:07:00.654Z,23.10
2018-10-05T06:08:00.983Z,24.60
2018-10-05T06:09:01.266Z,25.10
2018-10-05T06:10:01.824Z,26.20
2018-10-05T06:11:02.301Z,23.10
2018-10-05T06:12:02.619Z,24.20
2018-10-05T06:13:03.215Z,21.30
2018-10-05T06:14:03.021Z,19.50
2018-10-05T06:15:03.600Z,21.90
2018-10-05T06:16:04.053Z,17.10
2018-10-05T06:17:04.185Z,19.40
2018-10-05T06:18:04.271Z,19.40
2018-10-05T06:19:04.707Z,20.20
2018-10-05T06:20:04.905Z,14.60
2018-10-05T06:21:05.028Z,14.00
2018-10-05T06:22:04.965Z,18.70
2018-10-05T06:23:05.179Z,16.90
2018-10-05T06:24:05.906Z,16.20
2018-10-05T06:25:06.006Z,14.40
2018-10-05T06:26:06.388Z,16.00
2018-10-05T06:27:06.471Z,18.30
2018-10-05T06:28:06.634Z,13.80
2018-10-05T06:29:07.108Z,17.00
2018-10-05T06:30:07.227Z,17.70
2018-10-05T06:31:09.913Z,16.50
2018-10-05T06:32:07.453Z,17.50
2018-10-05T06:33:07.631Z,18.80
2018-10-05T06:34:07.639Z,16.70
2018-10-05T06:35:07.701Z,14.00
2018-10-05T06:36:07.870Z,13.50
2018-10-05T06:37:07.983Z,13.40
2018-10-05T06:38:07.863Z,16.70
2018-10-05T06:39:08.073Z,16.10
2018-10-05T06:40:08.537Z,14.30
2018-10-05T06:41:08.400Z,14.30
2018-10-05T06:42:09.239Z,14.50
2018-10-05T06:43:09.314Z,16.30
2018-10-05T06:44:09.352Z,13.70
2018-10-05T06:45:09.917Z,13.40
2018-10-05T06:46:09.685Z,15.30
2018-10-05T06:47:09.953Z,14.90
2018-10-05T06:48:10.439Z,14.90
2018-10-05T06:49:10.695Z,13.70
2018-10-05T06:50:10.952Z,18.10
2018-10-05T06:51:11.233Z,14.90
2018-10-05T06:52:11.640Z,15.50
2018-10-05T06:53:11.986Z,15.50
2018-10-05T06:54:12.203Z,12.20
2018-10-05T06:55:12.546Z,18.50
2018-10-05T06:56:13.013Z,14.00
2018-10-05T06:57:13.281Z,15.90
2018-10-05T06:58:13.566Z,19.40
2018-10-05T06:59:13.833Z,14.60
2018-10-05T07:00:14.360Z,14.70
2018-10-05T07:01:14.255Z,17.30
2018-10-05T07:02:14.521Z,15.30
2018-10-05T07:03:14.804Z,14.30
2018-10-05T07:04:15.098Z,11.10
2018-10-05T07:05:15.721Z,14.60
2018-10-05T07:06:15.505Z,11.20
2018-10-05T07:07:15.812Z,13.40
2018-10-05T07:08:16.187Z,11.40
2018-10-05T07:09:16.464Z,17.20
2018-10-05T07:10:16.995Z,13.50
2018-10-05T07:11:16.924Z,15.30
2018-10-05T07:12:17.113Z,12.40
2018-10-05T07:13:17.437Z,10.40
2018-10-05T07:14:17.699Z,14.00
2018-10-05T07:15:18.148Z,12.10
2018-10-05T07:16:18.811Z,17.30
2018-10-05T07:17:19.036Z,11.60
2018-10-05T07:18:19.174Z,15.30
2018-10-05T07:19:19.365Z,12.20
2018-10-05T07:20:19.533Z,16.30
2018-10-05T07:21:19.807Z,14.60
2018-10-05T07:22:19.964Z,15.70
2018-10-05T07:23:20.090Z,11.90
2018-10-05T07:24:20.283Z,11.70
2018-10-05T07:25:20.511Z,10.20
2018-10-05T07:26:20.654Z,12.40
2018-10-05T07:27:20.804Z,12.50
2018-10-05T07:28:21.064Z,15.50
2018-10-05T07:29:21.161Z,14.70
2018-10-05T07:30:21.373Z,15.10
2018-10-05T07:31:21.463Z,13.30
2018-10-05T07:32:21.562Z,10.70
2018-10-05T07:33:21.732Z,14.20
2018-10-05T07:34:21.863Z,12.70
2018-10-05T07:35:21.993Z,11.00
2018-10-05T07:36:22.300Z,16.00
2018-10-05T07:37:22.427Z,13.00
2018-10-05T07:38:22.488Z,12.60
2018-10-05T07:39:22.600Z,11.80
2018-10-05T07:40:22.752Z,13.10
2018-10-05T07:41:22.832Z,12.80
2018-10-05T07:42:22.930Z,12.00
2018-10-05T07:43:23.045Z,12.00
2018-10-05T07:44:23.165Z,10.10
2018-10-05T07:45:23.308Z,13.20
2018-10-05T07:46:23.455Z,12.70
2018-10-05T07:47:23.564Z,16.30
2018-10-05T07:48:23.663Z,11.20
2018-10-05T07:49:23.763Z,13.30
2018-10-05T07:50:24.142Z,13.40
2018-10-05T07:51:24.236Z,10.30
2018-10-05T07:52:24.259Z,12.20
2018-10-05T07:53:24.460Z,14.00
2018-10-05T07:54:24.486Z,15.60
2018-10-05T07:55:24.472Z,13.50
2018-10-05T07:56:24.766Z,17.00
2018-10-05T07:57:25.324Z,14.30
2018-10-05T07:58:25.673Z,11.40
2018-10-05T07:59:26.049Z,12.60
2018-10-05T08:00:26.379Z,13.00
2018-10-05T08:01:26.646Z,15.80
2018-10-05T08:02:27.033Z,11.80
2018-10-05T08:03:27.303Z,13.30
2018-10-05T08:05:27.894Z,11.60
2018-10-05T08:06:27.696Z,13.30
2018-10-05T08:07:28.040Z,14.30
2018-10-05T08:08:28.354Z,13.10
2018-10-05T08:09:28.894Z,13.10
2018-10-05T08:10:28.648Z,12.80
2018-10-05T08:11:28.982Z,16.10
2018-10-05T08:12:29.259Z,11.30
2018-10-05T08:13:29.597Z,14.30
2018-10-05T08:14:29.909Z,15.00
2018-10-05T08:15:30.248Z,13.40
2018-10-05T08:16:30.563Z,13.80
2018-10-05T08:17:30.846Z,12.50
2018-10-05T08:18:31.142Z,13.70
2018-10-05T08:19:31.520Z,13.10
2018-10-05T08:20:31.860Z,14.60
2018-10-05T08:21:32.282Z,13.50
2018-10-05T08:22:32.562Z,15.20
2018-10-05T08:23:32.837Z,14.20
2018-10-05T08:24:33.393Z,14.20
2018-10-05T08:25:33.487Z,12.30
2018-10-05T08:26:33.640Z,12.80
2018-10-05T08:27:33.796Z,14.00
2018-10-05T08:28:33.907Z,13.30
2018-10-05T08:29:34.029Z,13.40
2018-10-05T08:30:34.156Z,13.70
2018-10-05T08:31:34.287Z,12.20
2018-10-05T08:32:34.467Z,12.80
2018-10-05T08:33:34.671Z,12.30
2018-10-05T08:34:34.915Z,13.80
2018-10-05T08:35:34.982Z,13.80
2018-10-05T08:36:35.131Z,15.00
2018-10-05T08:37:35.294Z,13.80
2018-10-05T08:38:35.519Z,12.00
2018-10-05T08:39:35.666Z,15.20
2018-10-05T08:40:35.827Z,11.90
2018-10-05T08:41:36.050Z,13.40
2018-10-05T08:42:36.326Z,12.70
2018-10-05T08:43:36.432Z,10.20
2018-10-05T08:44:36.502Z,10.30
2018-10-05T08:45:36.706Z,13.00
2018-10-05T08:46:36.733Z,12.80
2018-10-05T08:47:36.811Z,13.00
2018-10-05T08:48:36.927Z,12.60
2018-10-05T08:49:37.083Z,9.60
2018-10-05T08:50:37.129Z,10.90
2018-10-05T08:51:37.274Z,16.10
2018-10-05T08:52:37.370Z,11.80
2018-10-05T08:53:37.469Z,11.20
2018-10-05T08:54:37.563Z,10.70
2018-10-05T08:55:37.334Z,14.10
2018-10-05T08:56:37.655Z,13.90
2018-10-05T08:57:38.216Z,12.80
2018-10-05T08:58:38.323Z,11.10
2018-10-05T08:59:38.418Z,14.40
2018-10-05T09:00:38.565Z,11.50
2018-10-05T09:01:38.367Z,14.50
2018-10-05T09:02:38.935Z,11.50
2018-10-05T09:03:39.037Z,12.70
2018-10-05T09:04:38.817Z,12.90
2018-10-05T09:05:39.382Z,12.40
2018-10-05T09:06:39.384Z,11.90
2018-10-05T09:07:39.315Z,12.60
2018-10-05T09:08:39.709Z,14.20
2018-10-05T09:09:40.005Z,14.00
2018-10-05T09:11:40.026Z,11.40
2018-10-05T09:12:40.345Z,12.60
2018-10-05T09:13:40.897Z,13.80
2018-10-05T09:14:40.671Z,10.90
2018-10-05T09:15:40.965Z,10.20
2018-10-05T09:16:41.507Z,10.90
2018-10-05T09:17:41.433Z,13.70
2018-10-05T09:18:41.596Z,11.40
2018-10-05T09:19:41.876Z,12.50
2018-10-05T09:21:42.205Z,10.90
2018-10-05T09:22:42.611Z,11.30
2018-10-05T09:23:42.927Z,11.50
2018-10-05T09:24:43.210Z,12.10
2018-10-05T09:25:43.626Z,11.60
2018-10-05T09:26:43.938Z,11.30
2018-10-05T09:27:44.386Z,12.80
2018-10-05T09:28:44.856Z,12.20
2018-10-05T09:29:45.119Z,11.60
2018-10-05T09:30:45.451Z,11.90
2018-10-05T09:31:45.746Z,10.60
2018-10-05T09:32:46.052Z,10.70
2018-10-05T09:33:46.095Z,12.90
2018-10-05T09:34:46.385Z,15.10
2018-10-05T09:35:46.874Z,11.40
2018-10-05T09:36:47.185Z,14.00
2018-10-05T09:37:47.629Z,11.10
2018-10-05T09:38:47.856Z,10.30
2018-10-05T09:39:48.356Z,11.10
2018-10-05T09:40:48.691Z,17.20
2018-10-05T09:41:48.817Z,10.30
2018-10-05T09:42:49.063Z,12.20
2018-10-05T09:43:49.164Z,12.30
2018-10-05T09:44:49.356Z,12.10
2018-10-05T09:45:49.411Z,11.90
2018-10-05T09:46:49.554Z,11.20
2018-10-05T09:47:49.723Z,9.90
2018-10-05T09:48:49.846Z,12.30
2018-10-05T09:49:50.006Z,9.40
2018-10-05T09:50:50.171Z,10.00
2018-10-05T09:51:50.407Z,10.10
2018-10-05T09:52:50.612Z,13.30
2018-10-05T09:53:50.754Z,9.40
2018-10-05T09:54:50.921Z,11.80
2018-10-05T09:55:51.012Z,11.90
2018-10-05T09:56:51.116Z,13.90
2018-10-05T09:57:51.216Z,10.70
2018-10-05T09:58:51.407Z,10.40
2018-10-05T09:59:51.616Z,12.40
2018-10-05T10:00:51.545Z,11.20
2018-10-05T10:01:51.780Z,13.10
2018-10-05T10:02:52.049Z,10.90
2018-10-05T10:03:52.293Z,8.80
2018-10-05T10:04:52.386Z,11.50
2018-10-05T10:05:52.460Z,11.00
2018-10-05T10:06:52.525Z,10.00
2018-10-05T10:07:52.992Z,10.20
2018-10-05T10:08:52.981Z,11.60
2018-10-05T10:09:53.175Z,11.70
2018-10-05T10:10:53.417Z,12.40
2018-10-05T10:11:53.725Z,10.00
2018-10-05T10:12:54.348Z,10.30
2018-10-05T10:13:54.174Z,13.50
2018-10-05T10:14:54.224Z,14.10
2018-10-05T10:15:54.414Z,10.60
2018-10-05T10:16:54.245Z,9.70
2018-10-05T10:17:54.537Z,13.40
2018-10-05T10:18:55.271Z,12.20
2018-10-05T10:19:55.087Z,12.20
2018-10-05T10:20:55.413Z,11.50
2018-10-05T10:21:55.714Z,10.70
2018-10-05T10:22:55.982Z,11.20
2018-10-05T10:23:56.421Z,11.80
2018-10-05T10:24:56.695Z,10.80
2018-10-05T10:25:56.951Z,14.80
2018-10-05T10:27:57.266Z,14.70
2018-10-05T10:28:57.694Z,14.20
2018-10-05T10:29:58.172Z,12.80
2018-10-05T10:30:57.986Z,14.30
2018-10-05T10:31:58.325Z,15.00
2018-10-05T10:32:58.701Z,14.10
2018-10-05T10:33:59.145Z,12.60
2018-10-05T10:34:59.416Z,14.80
2018-10-05T10:35:59.831Z,13.90
2018-10-05T10:37:00.229Z,13.40
2018-10-05T10:38:00.504Z,14.20
2018-10-05T10:39:00.824Z,13.10
2018-10-05T10:40:01.591Z,12.30
2018-10-05T10:41:01.516Z,13.40
2018-10-05T10:42:01.933Z,13.70
2018-10-05T10:43:02.348Z,16.20
2018-10-05T10:44:02.642Z,13.40
2018-10-05T10:45:02.635Z,14.00
2018-10-05T10:46:02.648Z,12.90
2018-10-05T10:47:03.031Z,12.60
2018-10-05T10:48:03.874Z,12.90
2018-10-05T10:49:04.126Z,13.40
2018-10-05T10:50:04.280Z,14.90
2018-10-05T10:51:04.424Z,16.70
2018-10-05T10:52:04.564Z,12.30
2018-10-05T10:53:04.755Z,12.40
2018-10-05T10:54:05.012Z,13.60
2018-10-05T10:55:05.165Z,16.00
2018-10-05T10:56:05.327Z,11.10
2018-10-05T10:57:05.394Z,12.70
2018-10-05T10:58:05.512Z,13.00
2018-10-05T10:59:05.885Z,12.30
2018-10-05T11:00:06.159Z,11.10
2018-10-05T11:01:06.340Z,12.30
2018-10-05T11:02:06.871Z,11.40
2018-10-05T11:03:07.141Z,12.10
2018-10-05T11:04:07.306Z,13.40
2018-10-05T11:05:07.290Z,11.50
2018-10-05T11:06:07.453Z,9.80
2018-10-05T11:07:07.466Z,9.80
2018-10-05T11:08:07.561Z,10.30
2018-10-05T11:09:07.693Z,13.10
2018-10-05T11:10:07.801Z,12.80
2018-10-05T11:11:07.997Z,10.90
2018-10-05T11:12:08.113Z,11.60
2018-10-05T11:13:08.294Z,12.70
2018-10-05T11:14:08.403Z,10.80
2018-10-05T11:15:08.547Z,13.50
2018-10-05T11:16:08.680Z,10.40
2018-10-05T11:17:08.876Z,10.20
2018-10-05T11:18:08.633Z,12.00
2018-10-05T11:19:09.176Z,10.10
2018-10-05T11:20:09.707Z,9.90
2018-10-05T11:21:09.574Z,11.30
2018-10-05T11:22:09.889Z,11.10
2018-10-05T11:24:10.291Z,9.90
2018-10-05T11:25:10.595Z,11.20
2018-10-05T11:26:11.198Z,12.90
2018-10-05T11:27:11.168Z,11.10
2018-10-05T11:28:11.198Z,10.40
2018-10-05T11:29:11.505Z,9.00
2018-10-05T11:30:12.135Z,10.70
2018-10-05T11:31:11.909Z,11.10
2018-10-05T11:32:12.216Z,9.10
2018-10-05T11:33:12.630Z,9.70
2018-10-05T11:34:13.047Z,11.10
2018-10-05T11:35:13.674Z,12.90
2018-10-05T11:36:13.568Z,11.50
2018-10-05T11:37:13.973Z,9.10
2018-10-05T11:38:14.290Z,8.50
2018-10-05T11:39:14.637Z,11.20
2018-10-05T11:40:15.254Z,10.10
2018-10-05T11:41:15.259Z,9.10
2018-10-05T11:42:15.107Z,13.10
2018-10-05T11:43:15.372Z,10.70
2018-10-05T11:44:15.785Z,8.40
2018-10-05T11:45:16.220Z,9.60
2018-10-05T11:46:16.587Z,9.90
2018-10-05T11:47:16.817Z,8.90
2018-10-05T11:48:17.125Z,8.40
2018-10-05T11:49:17.482Z,8.90
2018-10-05T11:50:17.912Z,9.40
2018-10-05T11:51:18.540Z,6.80
2018-10-05T11:52:18.951Z,9.70
2018-10-05T11:53:19.071Z,9.70
2018-10-05T11:54:19.283Z,7.90
2018-10-05T11:55:19.533Z,7.50
2018-10-05T11:56:19.658Z,8.20
2018-10-05T11:57:19.925Z,7.20
2018-10-05T11:58:20.090Z,7.10
2018-10-05T11:59:20.215Z,7.20
2018-10-05T12:00:20.325Z,7.00
2018-10-05T12:01:20.555Z,6.80
2018-10-05T12:02:20.816Z,7.40
2018-10-05T12:03:20.935Z,7.20
2018-10-05T12:04:21.086Z,6.20
2018-10-05T12:05:21.347Z,8.70
2018-10-05T12:06:21.459Z,6.40
2018-10-05T12:07:21.580Z,9.90
2018-10-05T12:08:21.682Z,8.80
2018-10-05T12:09:21.786Z,9.00
2018-10-05T12:10:21.942Z,8.50
2018-10-05T12:11:22.077Z,9.30
2018-10-05T12:12:22.249Z,6.90
2018-10-05T12:13:22.390Z,11.00
2018-10-05T12:14:22.475Z,8.60
2018-10-05T12:15:22.614Z,8.60
2018-10-05T12:16:22.730Z,6.30
2018-10-05T12:17:22.850Z,9.10
2018-10-05T12:18:23.041Z,6.80
2018-10-05T12:19:23.381Z,5.70
2018-10-05T12:20:23.482Z,5.70
2018-10-05T12:21:23.553Z,8.30
2018-10-05T12:22:23.679Z,6.20
2018-10-05T12:23:23.757Z,5.80
2018-10-05T12:24:23.791Z,6.40
2018-10-05T12:25:23.879Z,5.50
2018-10-05T12:26:24.026Z,5.00
2018-10-05T12:27:24.116Z,7.20
2018-10-05T12:28:24.226Z,7.10
2018-10-05T12:29:24.292Z,4.60
2018-10-05T12:30:24.357Z,5.40
2018-10-05T12:31:24.393Z,6.10
2018-10-05T12:32:24.659Z,7.10
2018-10-05T12:33:25.180Z,5.30
2018-10-05T12:34:25.625Z,7.00
2018-10-05T12:35:25.414Z,6.20
2018-10-05T12:36:25.763Z,7.00
2018-10-05T12:37:26.063Z,5.70
2018-10-05T12:38:26.310Z,7.00
2018-10-05T12:39:26.792Z,4.40
2018-10-05T12:40:26.653Z,5.40
2018-10-05T12:41:26.996Z,5.40
2018-10-05T12:42:27.266Z,5.70
2018-10-05T12:43:27.552Z,5.10
2018-10-05T12:44:27.848Z,6.80
2018-10-05T12:45:28.139Z,5.70
2018-10-05T12:46:28.635Z,6.40
2018-10-05T12:47:28.910Z,5.80
2018-10-05T12:48:29.287Z,8.20
2018-10-05T12:49:29.552Z,5.50
2018-10-05T12:50:29.843Z,5.50
2018-10-05T12:51:30.155Z,4.80
2018-10-05T12:52:30.453Z,6.00
2018-10-05T12:53:30.728Z,5.20
2018-10-05T12:54:31.041Z,7.80
2018-10-05T12:55:31.364Z,3.80
2018-10-05T12:56:31.741Z,5.90
2018-10-05T12:57:32.053Z,6.20
2018-10-05T12:58:32.336Z,5.80
2018-10-05T12:59:32.633Z,4.30
2018-10-05T13:00:32.999Z,7.10
2018-10-05T13:01:33.643Z,5.50
2018-10-05T13:02:33.745Z,6.20
2018-10-05T13:03:33.907Z,7.20
2018-10-05T13:04:34.045Z,7.00
2018-10-05T13:05:34.350Z,5.30
2018-10-05T13:06:34.481Z,5.30
2018-10-05T13:07:34.619Z,6.70